Time;durP1;ratioP1;P1;durP2;ratioP2;P2;SDS_P1;SDS_P2;PMS_P1;PMS_P2;Temp;Humidity;BMP_temperature;BMP_pressure;BME280_temperature;BME280_humidity;BME280_pressure;Samples;Min_cycle;Max_cycle;Signal;HPM_P1;HPM_P2
2023/12/03 00:02:18;;;;;;;150.63;70.30;;;;;;;-141.97;100.00;46012.53;5023994;28;20190;-90
2023/12/03 00:04:44;;;;;;;149.43;69.30;;;;;;;-141.97;100.00;46162.38;4995304;28;20167;-89
2023/12/03 00:07:11;;;;;;;144.40;67.03;;;;;;;-141.97;100.00;46093.22;5012866;28;20190;-90
2023/12/03 00:09:37;;;;;;;141.70;65.87;;;;;;;-141.97;100.00;46529.38;5013032;28;20198;-89
2023/12/03 00:12:06;;;;;;;140.03;63.67;;;;;;;-141.97;100.00;46106.66;5012786;28;20171;-91
2023/12/03 00:14:32;;;;;;;134.57;60.00;;;;;;;-141.97;100.00;46471.72;4994283;28;20187;-89
2023/12/03 00:16:57;;;;;;;138.70;63.10;;;;;;;-141.97;100.00;46500.56;4994568;28;20225;-90
2023/12/03 00:19:24;;;;;;;65.60;25.33;;;;;;;-141.97;100.00;46515.91;4991364;28;20580;-91
2023/12/03 00:21:50;;;;;;;138.37;63.27;;;;;;;-141.97;100.00;45935.69;4991810;28;20485;-93
2023/12/03 00:24:15;;;;;;;141.37;62.63;;;;;;;-141.97;100.00;46148.94;4992617;28;20160;-89
2023/12/03 00:26:40;;;;;;;134.27;62.70;;;;;;;-141.97;100.00;46221.94;4993201;28;20167;-90
2023/12/03 00:29:06;;;;;;;135.13;62.77;;;;;;;-141.97;100.00;46535.13;4993194;28;20163;-89
2023/12/03 00:31:33;;;;;;;150.23;66.93;;;;;;;-141.97;100.00;45958.75;4995046;28;20171;-89
2023/12/03 00:33:58;;;;;;;149.47;66.50;;;;;;;-141.97;100.00;46373.72;5003520;28;20191;-91
2023/12/03 00:36:23;;;;;;;117.40;51.27;;;;;;;-141.97;100.00;46550.50;5003394;28;20250;-90
2023/12/03 00:38:49;;;;;;;142.87;63.20;;;;;;;-141.97;100.00;46417.94;5015647;28;20179;-89
2023/12/03 00:41:14;;;;;;;150.23;67.00;;;;;;;-141.97;100.00;45952.97;5017178;28;20171;-91
2023/12/03 00:43:40;;;;;;;147.30;67.50;;;;;;;-141.97;100.00;46258.44;5008297;28;20183;-87
2023/12/03 00:46:06;;;;;;;145.03;61.43;;;;;;;-141.97;100.00;46221.94;4996473;28;20172;-88
2023/12/03 00:48:31;;;;;;;151.57;66.20;;;;;;;-141.97;100.00;46193.13;5004580;28;20251;-87
2023/12/03 00:50:56;;;;;;;151.17;61.33;;;;;;;-141.97;100.00;46223.88;5006525;28;20191;-88
2023/12/03 00:53:22;;;;;;;141.60;64.23;;;;;;;-141.97;100.00;46544.75;4997742;28;20333;-87
2023/12/03 00:55:47;;;;;;;114.70;49.30;;;;;;;-141.97;100.00;46085.53;5000569;28;20203;-90
2023/12/03 00:58:13;;;;;;;139.40;61.13;;;;;;;-141.97;100.00;46554.34;4997982;28;20246;-89
2023/12/03 01:00:38;;;;;;;84.87;32.17;;;;;;;-141.97;100.00;46131.66;4998424;28;20198;-91
2023/12/03 01:03:04;;;;;;;129.63;58.83;;;;;;;-141.97;100.00;46172.00;4978204;28;20217;-91
2023/12/03 01:05:29;;;;;;;123.87;55.47;;;;;;;-141.97;100.00;46494.78;4995396;28;20167;-88
2023/12/03 01:07:54;;;;;;;127.53;58.20;;;;;;;-141.97;100.00;46016.38;5007680;28;20156;-90
2023/12/03 01:10:20;;;;;;;127.17;57.27;;;;;;;-141.97;100.00;45916.47;5018780;28;20230;-91
2023/12/03 01:12:45;;;;;;;126.87;55.73;;;;;;;-141.97;100.00;46077.84;5056748;23;20218;-91
2023/12/03 01:15:11;;;;;;;127.10;55.27;;;;;;;-141.97;100.00;46241.16;5023250;28;20756;-92
2023/12/03 01:17:37;;;;;;;124.17;56.27;;;;;;;-141.97;100.00;46496.72;5023085;28;20634;-90
2023/12/03 01:20:02;;;;;;;123.03;54.53;;;;;;;-141.97;100.00;46243.09;5022151;28;20177;-91
2023/12/03 01:22:28;;;;;;;117.73;52.73;;;;;;;-141.97;100.00;45999.09;5021911;28;20220;-90
2023/12/03 01:24:54;;;;;;;116.50;52.93;;;;;;;-141.97;100.00;46483.25;5018340;28;20292;-91
2023/12/03 01:27:19;;;;;;;111.63;51.53;;;;;;;-141.97;100.00;46496.72;5019207;28;20189;-89
2023/12/03 01:29:44;;;;;;;121.00;53.77;;;;;;;-141.97;100.00;46033.66;5019563;28;20170;-91
2023/12/03 01:32:10;;;;;;;118.27;51.97;;;;;;;-141.97;100.00;46237.31;5017394;28;20166;-91
2023/12/03 01:34:35;;;;;;;111.93;50.07;;;;;;;-141.97;100.00;46638.91;5034922;28;20205;-90
2023/12/03 01:37:01;;;;;;;116.00;53.00;;;;;;;-141.97;100.00;46039.44;5017287;28;20170;-89
2023/12/03 01:39:26;;;;;;;110.77;52.87;;;;;;;-141.97;100.00;45935.69;5017717;28;20173;-89
2023/12/03 01:41:52;;;;;;;117.67;53.67;;;;;;;-141.97;100.00;45999.09;5017506;28;20173;-89
2023/12/03 01:44:18;;;;;;;116.23;54.20;;;;;;;-141.97;100.00;46154.69;5034622;28;20234;-90
2023/12/03 01:46:46;;;;;;;118.57;54.23;;;;;;;-141.97;100.00;46577.41;5034139;28;20251;-90
2023/12/03 01:49:12;;;;;;;137.37;60.00;;;;;;;-141.97;100.00;46440.97;5034111;28;20201;-90
2023/12/03 01:51:37;;;;;;;121.47;56.23;;;;;;;-141.97;100.00;46490.94;5034020;28;20155;-89
2023/12/03 01:54:03;;;;;;;119.37;54.27;;;;;;;-141.97;100.00;46504.38;5016207;28;20244;-90
2023/12/03 01:56:28;;;;;;;258.37;102.43;;;;;;;-141.97;100.00;46016.38;5016320;28;20170;-90
2023/12/03 01:58:54;;;;;;;244.70;100.53;;;;;;;-141.97;100.00;46039.44;5015979;28;20170;-90
2023/12/03 02:01:19;;;;;;;179.43;75.30;;;;;;;-141.97;100.00;46229.63;5016008;28;20265;-91
2023/12/03 02:03:45;;;;;;;117.43;54.27;;;;;;;-141.97;100.00;46661.97;5038800;28;20159;-88
2023/12/03 02:06:11;;;;;;;113.50;51.30;;;;;;;-141.97;100.00;46281.50;5025995;28;20177;-90
2023/12/03 02:08:37;;;;;;;118.37;54.07;;;;;;;-141.97;100.00;46047.13;5033186;28;20163;-89
2023/12/03 02:11:05;;;;;;;108.70;51.27;;;;;;;-141.97;100.00;46054.81;5015052;28;20253;-89
2023/12/03 02:13:32;;;;;;;115.97;52.23;;;;;;;-141.97;100.00;46081.69;5015803;28;20629;-87
2023/12/03 02:15:58;;;;;;;109.73;51.17;;;;;;;-141.97;100.00;46573.56;5032954;28;20253;-88
2023/12/03 02:18:26;;;;;;;115.83;50.63;;;;;;;-141.97;100.00;46231.56;5032555;28;20211;-87
2023/12/03 02:20:52;;;;;;;104.40;49.83;;;;;;;-141.97;100.00;46239.25;5018988;28;20204;-86
2023/12/03 02:23:17;;;;;;;118.73;54.90;;;;;;;-141.97;100.00;46502.47;5062062;23;20278;-85
2023/12/03 02:25:43;;;;;;;124.23;56.33;;;;;;;-141.97;100.00;46692.69;5074069;28;20178;-86
2023/12/03 02:28:08;;;;;;;128.90;61.63;;;;;;;-141.97;100.00;46588.94;5065349;28;20166;-85
2023/12/03 02:30:34;;;;;;;130.90;61.20;;;;;;;-141.97;100.00;46200.81;5075805;28;20181;-85
2023/12/03 02:33:00;;;;;;;146.83;67.23;;;;;;;-141.97;100.00;46231.56;5058742;28;20237;-85
2023/12/03 02:35:25;;;;;;;161.27;71.40;;;;;;;-141.97;100.00;46250.78;5043124;28;20205;-86
2023/12/03 02:37:51;;;;;;;215.37;88.23;;;;;;;-141.97;100.00;46004.84;5053080;28;20200;-87
2023/12/03 02:40:16;;;;;;;323.43;122.70;;;;;;;-141.97;100.00;46260.38;5052926;28;20174;-86
2023/12/03 02:42:42;;;;;;;209.77;85.20;;;;;;;-141.97;100.00;46550.50;5052511;28;20173;-86
2023/12/03 02:45:09;;;;;;;125.50;53.43;;;;;;;-141.97;100.00;46216.19;5034760;28;20260;-86
2023/12/03 02:47:34;;;;;;;104.20;47.63;;;;;;;-141.97;100.00;46239.25;5052083;28;20184;-86
2023/12/03 02:50:00;;;;;;;99.87;46.10;;;;;;;-141.97;100.00;46243.09;5051357;28;20412;-85
2023/12/03 02:52:26;;;;;;;80.27;40.03;;;;;;;-141.97;100.00;46246.94;5051652;28;20196;-86
2023/12/03 02:54:51;;;;;;;82.37;40.37;;;;;;;-141.97;100.00;46275.75;5051706;28;20564;-86
2023/12/03 02:57:17;;;;;;;86.53;42.07;;;;;;;-141.97;100.00;46408.31;5051294;28;20165;-86
2023/12/03 02:59:42;;;;;;;74.10;36.77;;;;;;;-141.97;100.00;46066.31;5033757;28;20189;-86
2023/12/03 03:02:07;;;;;;;71.53;36.47;;;;;;;-141.97;100.00;46612.00;5033885;28;20177;-86
2023/12/03 03:04:33;;;;;;;77.40;37.67;;;;;;;-141.97;100.00;46083.63;5050931;28;20177;-88
2023/12/03 03:06:58;;;;;;;67.10;36.27;;;;;;;-141.97;100.00;46227.72;5052364;28;20199;-89
2023/12/03 03:09:23;;;;;;;72.90;37.27;;;;;;;-141.97;100.00;46123.97;5052273;28;20730;-86
2023/12/03 03:11:49;;;;;;;68.03;32.40;;;;;;;-141.97;100.00;46060.56;5051660;28;20173;-86
2023/12/03 03:14:14;;;;;;;71.27;35.40;;;;;;;-141.97;100.00;46581.25;5051841;28;20204;-86
2023/12/03 03:16:40;;;;;;;74.77;36.10;;;;;;;-141.97;100.00;46279.59;5051908;28;20173;-86
2023/12/03 03:19:08;;;;;;;66.53;33.47;;;;;;;-141.97;100.00;46723.44;5051420;28;20200;-91
2023/12/03 03:21:40;;;;;;;77.00;38.20;;;;;;;-141.97;100.00;46248.84;5034713;28;20165;-88
2023/12/03 03:24:06;;;;;;;80.00;38.73;;;;;;;-141.97;100.00;46183.53;5053120;28;20550;-89
2023/12/03 03:26:32;;;;;;;82.70;39.87;;;;;;;-141.97;100.00;46131.66;5054485;28;20404;-91
2023/12/03 03:28:57;;;;;;;82.43;38.63;;;;;;;-141.97;100.00;46565.88;5036987;28;20491;-91
2023/12/03 03:31:23;;;;;;;76.53;38.03;;;;;;;-141.97;100.00;46658.13;5055555;28;20165;-90
2023/12/03 03:33:50;;;;;;;78.23;38.17;;;;;;;-141.97;100.00;45999.09;5055378;28;20189;-90
2023/12/03 03:36:16;;;;;;;79.23;38.53;;;;;;;-141.97;100.00;46489.03;5037641;28;20185;-89
2023/12/03 03:38:44;;;;;;;78.13;39.40;;;;;;;-141.97;100.00;46266.13;5043382;28;20157;-88
2023/12/03 03:41:10;;;;;;;77.43;36.40;;;;;;;-141.97;100.00;46515.91;5076244;28;20166;-90
2023/12/03 03:43:36;;;;;;;74.03;35.30;;;;;;;-141.97;100.00;46239.25;5058886;28;20479;-89
2023/12/03 03:46:01;;;;;;;76.70;33.77;;;;;;;-141.97;100.00;46512.06;5040746;28;20205;-90
2023/12/03 03:48:27;;;;;;;101.90;42.67;;;;;;;-141.97;100.00;46039.44;5053437;28;20165;-90
2023/12/03 03:50:52;;;;;;;75.03;36.30;;;;;;;-141.97;100.00;46150.84;5054166;28;20169;-88
2023/12/03 03:53:17;;;;;;;69.80;33.70;;;;;;;-141.97;100.00;46264.22;5053990;28;20165;-89
2023/12/03 03:55:43;;;;;;;73.50;36.17;;;;;;;-141.97;100.00;46137.41;5052283;28;20558;-90
2023/12/03 03:58:09;;;;;;;74.30;36.13;;;;;;;-141.97;100.00;46116.28;5052716;28;20697;-90
2023/12/03 04:00:34;;;;;;;69.93;34.30;;;;;;;-141.97;100.00;46074.00;5052046;28;20165;-89
2023/12/03 04:02:59;;;;;;;76.43;36.23;;;;;;;-141.97;100.00;46100.91;5051156;28;20223;-89
2023/12/03 04:05:25;;;;;;;69.07;34.77;;;;;;;-141.97;100.00;46108.59;5050971;28;20166;-88
2023/12/03 04:07:51;;;;;;;68.73;35.17;;;;;;;-141.97;100.00;46150.84;5057389;28;20225;-89
2023/12/03 04:10:16;;;;;;;69.83;35.33;;;;;;;-141.97;100.00;46195.06;5062913;28;20166;-90
2023/12/03 04:12:42;;;;;;;70.30;35.77;;;;;;;-141.97;100.00;46173.91;5033745;28;20231;-90
2023/12/03 04:15:08;;;;;;;108.07;45.03;;;;;;;-141.97;100.00;46442.91;5051347;28;20177;-88
2023/12/03 04:17:33;;;;;;;123.77;55.73;;;;;;;-141.97;100.00;46020.22;5036899;28;20176;-88
2023/12/03 04:19:59;;;;;;;121.73;53.83;;;;;;;-141.97;100.00;46225.78;5055318;28;20166;-87
2023/12/03 04:22:24;;;;;;;113.90;51.50;;;;;;;-141.97;100.00;46114.34;5053866;28;20235;-87
2023/12/03 04:24:50;;;;;;;158.40;69.43;;;;;;;-141.97;100.00;46264.22;5055431;28;20304;-89
2023/12/03 04:27:16;;;;;;;200.23;87.57;;;;;;;-141.97;100.00;46239.25;5065798;28;20220;-88
2023/12/03 04:29:41;;;;;;;197.37;90.10;;;;;;;-141.97;100.00;46066.31;5073630;28;20169;-88
2023/12/03 04:32:07;;;;;;;156.20;78.67;;;;;;;-141.97;100.00;46177.75;5058628;28;20296;-89
2023/12/03 04:34:33;;;;;;;125.40;62.73;;;;;;;-141.97;100.00;46458.28;5038463;28;20321;-89
2023/12/03 04:36:59;;;;;;;126.10;61.10;;;;;;;-141.97;100.00;46008.69;5056111;28;20231;-90
2023/12/03 04:39:24;;;;;;;116.73;49.80;;;;;;;-141.97;100.00;46588.94;5056539;28;20173;-91
2023/12/03 04:41:50;;;;;;;155.93;71.80;;;;;;;-141.97;100.00;46489.03;5038704;28;20177;-89
2023/12/03 04:44:15;;;;;;;178.07;85.83;;;;;;;-141.97;100.00;46218.09;5055745;28;20215;-90
2023/12/03 04:50:42;;;;;;;;;;;;;;;;;;;;;
2023/12/03 04:57:04;;;;;;;255.30;115.67;;;;;;;-141.97;100.00;46565.88;4896174;29;20179;-86
2023/12/03 05:02:53;;;;;;;181.90;87.07;;;;;;;-141.97;100.00;46298.81;4895490;29;20195;-85
2023/12/03 05:05:18;;;;;;;125.03;58.10;;;;;;;-141.97;100.00;46200.81;4896849;29;20754;-88
2023/12/03 05:07:44;;;;;;;107.00;51.40;;;;;;;-141.97;100.00;46706.16;4896666;29;20205;-88
2023/12/03 05:10:09;;;;;;;59.60;29.13;;;;;;;-141.97;100.00;46550.50;4881534;29;20206;-88
2023/12/03 05:12:34;;;;;;;56.93;30.10;;;;;;;-141.97;100.00;46573.56;4897832;29;20262;-89
2023/12/03 05:15:00;;;;;;;55.57;28.50;;;;;;;-141.97;100.00;46256.53;4881951;29;20287;-90
2023/12/03 05:17:25;;;;;;;53.73;26.07;;;;;;;-141.97;100.00;46540.91;4898206;29;20222;-89
2023/12/03 05:19:51;;;;;;;48.73;25.07;;;;;;;-141.97;100.00;46204.66;4897300;29;20202;-91
2023/12/03 05:22:16;;;;;;;43.20;23.53;;;;;;;-141.97;100.00;46196.97;4896928;29;20638;-87
2023/12/03 05:24:42;;;;;;;43.83;21.77;;;;;;;-141.97;100.00;46556.28;4861635;29;20203;-88
2023/12/03 05:27:07;;;;;;;38.83;21.17;;;;;;;-141.97;100.00;46108.59;4900326;29;20186;-88
2023/12/03 05:29:33;;;;;;;39.50;20.87;;;;;;;-141.97;100.00;46371.81;4934747;29;20193;-87
2023/12/03 05:31:58;;;;;;;38.33;20.67;;;;;;;-141.97;100.00;46554.34;4933747;29;20185;-88
2023/12/03 05:34:23;;;;;;;39.73;22.07;;;;;;;-141.97;100.00;46258.44;4966334;28;20215;-87
2023/12/03 05:36:50;;;;;;;60.83;28.07;;;;;;;-141.97;100.00;46081.69;5001832;28;20274;-88
2023/12/03 05:39:15;;;;;;;63.87;31.70;;;;;;;-141.97;100.00;46106.66;5002625;28;20293;-87
2023/12/03 05:41:41;;;;;;;46.33;24.17;;;;;;;-141.97;100.00;46535.13;5036080;28;20173;-88
2023/12/03 05:44:07;;;;;;;44.50;23.93;;;;;;;-141.97;100.00;46077.84;5018321;28;20166;-89
2023/12/03 05:46:32;;;;;;;66.73;35.63;;;;;;;-141.97;100.00;46375.66;5028162;28;20211;-87
2023/12/03 05:48:58;;;;;;;54.90;28.23;;;;;;;-141.97;100.00;46592.78;5054278;28;20165;-87
2023/12/03 05:51:23;;;;;;;52.57;27.07;;;;;;;-141.97;100.00;46227.72;5054033;28;20197;-87
2023/12/03 05:53:48;;;;;;;63.40;34.57;;;;;;;-141.97;100.00;46237.31;5069450;28;20219;-87
2023/12/03 05:56:14;;;;;;;56.87;28.43;;;;;;;-141.97;100.00;46473.66;5077010;28;20162;-87
2023/12/03 05:58:39;;;;;;;50.27;26.57;;;;;;;-141.97;100.00;46208.50;5076562;28;20193;-89
2023/12/03 06:01:05;;;;;;;68.30;35.87;;;;;;;-141.97;100.00;46218.09;5057444;28;20669;-87
2023/12/03 06:03:30;;;;;;;94.80;46.07;;;;;;;-141.97;100.00;46093.22;5053062;28;20162;-87
2023/12/03 06:05:55;;;;;;;102.27;48.33;;;;;;;-141.97;100.00;46039.44;5052705;28;20169;-87
2023/12/03 06:08:21;;;;;;;107.40;50.20;;;;;;;-141.97;100.00;46187.38;5034777;28;20637;-87
2023/12/03 06:10:46;;;;;;;120.43;56.37;;;;;;;-141.97;100.00;46477.50;5035679;28;20237;-89
2023/12/03 06:13:12;;;;;;;67.13;35.10;;;;;;;-141.97;100.00;45908.78;5075150;28;20253;-87
2023/12/03 06:15:37;;;;;;;55.37;29.40;;;;;;;-141.97;100.00;46145.09;5077526;28;20164;-87
2023/12/03 06:18:02;;;;;;;62.40;33.73;;;;;;;-141.97;100.00;46558.19;5071088;28;20547;-89
2023/12/03 06:20:28;;;;;;;190.37;90.97;;;;;;;-141.97;100.00;46097.06;5057397;28;20169;-87
2023/12/03 06:22:55;;;;;;;170.67;80.33;;;;;;;-141.97;100.00;46220.03;5058842;28;20280;-87
2023/12/03 06:25:20;;;;;;;148.67;73.63;;;;;;;-141.97;100.00;46686.94;5037379;28;20211;-87
2023/12/03 06:27:45;;;;;;;157.93;78.67;;;;;;;-141.97;100.00;46189.28;5056705;28;20240;-87
2023/12/03 06:30:12;;;;;;;122.20;59.20;;;;;;;-141.97;100.00;46212.34;5054967;28;20256;-87
2023/12/03 06:32:37;;;;;;;84.00;44.20;;;;;;;-141.97;100.00;46187.38;5054711;28;20169;-86
2023/12/03 06:35:04;;;;;;;67.10;34.80;;;;;;;-141.97;100.00;46189.28;5054183;28;20192;-86
2023/12/03 06:37:29;;;;;;;75.67;40.93;;;;;;;-141.97;100.00;46196.97;5057620;28;20240;-86
2023/12/03 06:39:55;;;;;;;56.10;29.37;;;;;;;-141.97;100.00;46041.34;5056327;28;20212;-86
2023/12/03 06:42:20;;;;;;;55.27;30.70;;;;;;;-141.97;100.00;46145.09;5057068;28;20174;-85
2023/12/03 06:44:46;;;;;;;162.47;86.23;;;;;;;-141.97;100.00;46237.31;5055510;28;20164;-87
2023/12/03 06:47:11;;;;;;;224.77;120.50;;;;;;;-141.97;100.00;46089.38;5054669;28;20166;-86
2023/12/03 06:49:37;;;;;;;113.90;58.53;;;;;;;-141.97;100.00;46081.69;5056139;28;20209;-86
2023/12/03 06:52:02;;;;;;;822.97;370.37;;;;;;;-141.97;100.00;46147.03;5057118;28;20162;-86
2023/12/03 06:54:28;;;;;;;1081.00;529.97;;;;;;;-141.97;100.00;46233.47;5056107;28;20197;-85
2023/12/03 06:56:53;;;;;;;192.67;74.47;;;;;;;-141.97;100.00;46068.25;5057846;28;20162;-85
2023/12/03 06:59:19;;;;;;;93.33;42.80;;;;;;;-141.97;100.00;46196.97;5037913;28;20185;-87
2023/12/03 07:01:44;;;;;;;56.30;29.00;;;;;;;-141.97;100.00;46442.91;5075571;28;20189;-88
2023/12/03 07:04:10;;;;;;;53.47;27.87;;;;;;;-141.97;100.00;46195.06;5070630;28;20170;-87
2023/12/03 07:06:35;;;;;;;54.60;27.40;;;;;;;-141.97;100.00;46160.47;5058179;28;20161;-87
2023/12/03 07:09:00;;;;;;;45.30;23.43;;;;;;;-141.97;100.00;46043.28;5067508;28;20168;-86
2023/12/03 07:11:28;;;;;;;80.80;47.00;;;;;;;-141.97;100.00;46081.69;5052132;28;20161;-86
2023/12/03 07:13:53;;;;;;;53.60;28.00;;;;;;;-141.97;100.00;46198.91;5052568;28;20193;-87
2023/12/03 07:16:19;;;;;;;88.70;49.70;;;;;;;-141.97;100.00;46112.44;5043091;28;20161;-87
2023/12/03 07:18:44;;;;;;;53.20;30.00;;;;;;;-141.97;100.00;46200.81;5041551;28;20191;-88
2023/12/03 07:21:10;;;;;;;234.60;96.40;;;;;;;-141.97;100.00;46200.81;5053660;28;20247;-87
2023/12/03 07:23:36;;;;;;;187.00;88.73;;;;;;;-141.97;100.00;46465.97;5035796;28;20785;-87
2023/12/03 07:26:07;;;;;;;171.60;71.00;;;;;;;-141.97;100.00;46177.75;5036644;28;20201;-88
2023/12/03 07:28:32;;;;;;;168.37;72.90;;;;;;;-141.97;100.00;46118.19;5053759;28;20558;-86
2023/12/03 07:30:58;;;;;;;120.43;64.93;;;;;;;-141.97;100.00;46131.66;5038486;28;20173;-89
2023/12/03 07:33:23;;;;;;;148.03;84.00;;;;;;;-141.97;100.00;46024.06;5051751;28;20172;-90
2023/12/03 07:35:49;;;;;;;158.43;95.10;;;;;;;-141.97;100.00;46091.31;5052949;28;20224;-88
2023/12/03 07:38:14;;;;;;;119.17;69.00;;;;;;;-141.97;100.00;46588.94;5036308;28;20310;-87
2023/12/03 07:40:39;;;;;;;40.57;21.23;;;;;;;-141.97;100.00;46175.84;5055113;28;20622;-86
2023/12/03 07:43:05;;;;;;;110.93;50.77;;;;;;;-141.97;100.00;46024.06;5053398;28;20165;-86
2023/12/03 07:45:30;;;;;;;87.77;43.67;;;;;;;-141.97;100.00;46208.50;5052320;28;20161;-86
2023/12/03 07:47:55;;;;;;;99.70;52.80;;;;;;;-141.97;100.00;46225.78;5053368;28;20653;-85
2023/12/03 07:50:21;;;;;;;155.97;82.17;;;;;;;-141.97;100.00;46206.56;5056353;28;20166;-86
2023/12/03 07:52:46;;;;;;;100.90;54.73;;;;;;;-141.97;100.00;46204.66;5057654;28;20176;-87
2023/12/03 07:55:12;;;;;;;59.37;30.33;;;;;;;-141.97;100.00;46485.19;5059070;28;20191;-87
2023/12/03 07:57:38;;;;;;;54.07;28.53;;;;;;;-141.97;100.00;46104.75;5039094;28;20264;-86
2023/12/03 08:00:05;;;;;;;53.83;29.73;;;;;;;-141.97;100.00;46327.63;5057480;28;20529;-87
2023/12/03 08:02:30;;;;;;;55.23;29.30;;;;;;;-141.97;100.00;46162.38;5059596;28;20161;-86
2023/12/03 08:04:55;;;;;;;61.90;33.80;;;;;;;-141.97;100.00;46139.34;5058958;28;20183;-86
2023/12/03 08:07:21;;;;;;;50.13;27.70;;;;;;;-141.97;100.00;46189.28;5058917;28;20252;-84
2023/12/03 08:09:46;;;;;;;48.50;22.90;;;;;;;-141.97;100.00;46164.31;5061988;28;20217;-86
2023/12/03 08:12:12;;;;;;;52.00;27.73;;;;;;;-141.97;100.00;46210.41;5077666;28;20169;-85
2023/12/03 08:14:37;;;;;;;69.33;34.47;;;;;;;-141.97;100.00;46091.31;5066548;28;20209;-84
2023/12/03 08:17:03;;;;;;;55.83;29.23;;;;;;;-141.97;100.00;46250.78;5044357;28;20630;-86
2023/12/03 08:19:28;;;;;;;42.27;22.47;;;;;;;-141.97;100.00;46508.22;5042617;28;20180;-86
2023/12/03 08:21:54;;;;;;;37.10;19.77;;;;;;;-141.97;100.00;46168.16;5047606;28;20180;-88
2023/12/03 08:24:19;;;;;;;32.20;19.23;;;;;;;-141.97;100.00;46173.91;5061404;28;20225;-85
2023/12/03 08:26:45;;;;;;;34.03;18.57;;;;;;;-141.97;100.00;46012.53;5060618;28;20170;-88
2023/12/03 08:29:12;;;;;;;36.40;20.47;;;;;;;-141.97;100.00;46581.25;5063414;28;20162;-90
2023/12/03 08:31:49;;;;;;;35.33;19.03;;;;;;;-141.97;100.00;46417.94;5061591;28;20180;-88
2023/12/03 08:34:30;;;;;;;36.07;18.60;;;;;;;-141.97;100.00;46141.25;5026501;28;20216;-88
2023/12/03 08:37:34;;;;;;;31.60;17.93;;;;;;;-141.97;100.00;46392.94;5039752;28;20182;-88
2023/12/03 08:40:33;;;;;;;54.27;28.10;;;;;;;-141.97;100.00;46154.69;5038966;28;20181;-90
2023/12/03 08:43:00;;;;;;;229.50;92.07;;;;;;;-141.97;100.00;46483.25;5054889;28;20204;-89
2023/12/03 08:45:26;;;;;;;123.93;53.20;;;;;;;-141.97;100.00;46097.06;5061281;28;20606;-88
2023/12/03 08:47:53;;;;;;;107.90;52.30;;;;;;;-141.97;100.00;46343.00;5060091;28;20203;-89
2023/12/03 08:50:18;;;;;;;48.47;24.20;;;;;;;-141.97;100.00;45878.06;5078674;28;20220;-91
2023/12/03 08:52:45;;;;;;;41.10;20.33;;;;;;;-141.97;100.00;46043.28;5078590;22;20248;-92
2023/12/03 08:55:10;;;;;;;57.80;29.73;;;;;;;-141.97;100.00;46016.38;5057933;28;20196;-89
2023/12/03 08:57:39;;;;;;;77.17;38.60;;;;;;;-141.97;100.00;46001.00;5039762;28;20225;-92
2023/12/03 09:00:08;;;;;;;69.43;34.53;;;;;;;-141.97;100.00;46127.81;5039987;28;20181;-91
2023/12/03 09:02:33;;;;;;;36.27;19.13;;;;;;;-141.97;100.00;46118.19;5054984;28;20162;-90
2023/12/03 09:04:59;;;;;;;66.90;31.40;;;;;;;-141.97;100.00;46300.72;5058697;28;20240;-92
2023/12/03 09:07:25;;;;;;;49.60;26.33;;;;;;;-141.97;100.00;46062.47;5041594;28;20170;-91
2023/12/03 09:09:50;;;;;;;46.13;23.93;;;;;;;-141.97;100.00;46020.22;5040742;28;20181;-90
2023/12/03 09:12:17;;;;;;;37.60;19.77;;;;;;;-141.97;100.00;46431.38;5241970;22;20247;-91
2023/12/03 09:14:43;;;;;;;82.87;41.00;;;;;;;-141.97;100.00;46467.88;5058745;28;20245;-90
2023/12/03 09:17:09;;;;;;;155.23;72.83;;;;;;;-141.97;100.00;45951.06;5040272;28;20200;-90
2023/12/03 09:19:34;;;;;;;170.33;80.07;;;;;;;-141.97;100.00;46104.75;5057508;28;20744;-91
2023/12/03 09:22:00;;;;;;;157.90;74.40;;;;;;;-141.97;100.00;46110.50;5043918;28;20161;-91
2023/12/03 09:24:25;;;;;;;114.03;58.03;;;;;;;-141.97;100.00;45908.78;5046971;28;20177;-92
2023/12/03 09:26:51;;;;;;;124.93;58.00;;;;;;;-141.97;100.00;46093.22;5045302;28;20192;-91
2023/12/03 09:29:19;;;;;;;142.03;63.57;;;;;;;-141.97;100.00;46081.69;5045025;28;20185;-94
2023/12/03 09:31:47;;;;;;;160.13;76.73;;;;;;;-141.97;100.00;46112.44;5049555;28;20248;-91
2023/12/03 09:34:12;;;;;;;163.07;78.10;;;;;;;-141.97;100.00;46081.69;5047058;28;20225;-90
2023/12/03 09:36:38;;;;;;;126.67;57.57;;;;;;;-141.97;100.00;46093.22;5045959;28;20502;-91
2023/12/03 09:39:07;;;;;;;82.10;40.37;;;;;;;-141.97;100.00;46020.22;5019228;28;20202;-90
2023/12/03 09:41:51;;;;;;;63.40;33.17;;;;;;;-141.97;100.00;45772.41;5003571;28;20197;-90
2023/12/03 09:44:27;;;;;;;44.33;22.63;;;;;;;-141.97;100.00;46387.19;5020185;28;20189;-91
2023/12/03 09:46:56;;;;;;;41.47;20.47;;;;;;;-141.97;100.00;46269.97;5002906;28;20173;-93
2023/12/03 09:49:30;;;;;;;37.87;19.77;;;;;;;-141.97;100.00;46266.13;5019623;28;20251;-93
2023/12/03 09:52:00;;;;;;;41.83;23.63;;;;;;;-141.97;100.00;46362.22;5020899;28;20173;-90
2023/12/03 09:54:26;;;;;;;45.40;26.57;;;;;;;-141.97;100.00;45974.09;5019706;28;20705;-90
2023/12/03 09:56:56;;;;;;;86.07;38.10;;;;;;;-141.97;100.00;45893.41;5004437;28;20205;-92
2023/12/03 09:59:22;;;;;;;83.33;41.97;;;;;;;-141.97;100.00;45862.69;5020169;28;20357;-91
2023/12/03 10:01:51;;;;;;;105.47;47.63;;;;;;;-141.97;100.00;45951.06;5008491;28;20229;-91
2023/12/03 10:04:23;;;;;;;76.30;37.13;;;;;;;-141.97;100.00;46020.22;5009099;28;20191;-90
2023/12/03 10:06:52;;;;;;;41.73;22.70;;;;;;;-141.97;100.00;45958.75;5003456;28;20677;-91
2023/12/03 10:09:19;;;;;;;41.17;22.70;;;;;;;-141.97;100.00;46369.88;4999069;28;20663;-91
2023/12/03 10:11:54;;;;;;;66.23;37.13;;;;;;;-141.97;100.00;45954.91;5014467;28;20337;-89
2023/12/03 10:14:29;;;;;;;60.87;32.50;;;;;;;-141.97;100.00;45997.16;4997611;28;20690;-89
2023/12/03 10:16:54;;;;;;;84.37;45.77;;;;;;;-141.97;100.00;45928.00;5023604;28;20641;-89
2023/12/03 10:19:24;;;;;;;88.13;46.23;;;;;;;-141.97;100.00;45935.69;5037646;28;20181;-90
2023/12/03 10:21:50;;;;;;;68.87;40.03;;;;;;;-141.97;100.00;46001.00;5040482;28;20689;-91
2023/12/03 10:24:16;;;;;;;111.23;56.17;;;;;;;-141.97;100.00;45929.91;5058332;28;20654;-91
2023/12/03 10:26:51;;;;;;;111.93;55.83;;;;;;;-141.97;100.00;45985.63;5041534;28;20169;-89
2023/12/03 10:29:27;;;;;;;86.17;44.57;;;;;;;-141.97;100.00;45981.78;5051563;28;20257;-91
2023/12/03 10:31:53;;;;;;;69.27;38.37;;;;;;;-141.97;100.00;45985.63;5043381;28;20172;-91
2023/12/03 10:34:23;;;;;;;56.23;31.10;;;;;;;-141.97;100.00;46304.56;5042037;28;20197;-90
2023/12/03 10:36:49;;;;;;;35.90;18.93;;;;;;;-141.97;100.00;45904.94;5039945;28;20176;-91
2023/12/03 10:39:18;;;;;;;29.77;14.97;;;;;;;-141.97;100.00;46456.34;5039801;28;20379;-89
2023/12/03 10:41:49;;;;;;;29.43;16.97;;;;;;;-141.97;100.00;46001.00;5040636;28;20166;-90
2023/12/03 10:44:23;;;;;;;29.40;17.63;;;;;;;-141.97;100.00;45929.91;5043593;28;20233;-91
2023/12/03 10:46:49;;;;;;;31.57;17.10;;;;;;;-141.97;100.00;46202.72;5057620;28;20161;-90
2023/12/03 10:49:16;;;;;;;32.30;16.23;;;;;;;-141.97;100.00;45878.06;5055501;28;20175;-92
2023/12/03 10:51:42;;;;;;;34.30;17.27;;;;;;;-141.97;100.00;45828.09;5036831;28;20168;-92
2023/12/03 10:54:11;;;;;;;34.77;17.80;;;;;;;-141.97;100.00;45989.47;5037804;28;20228;-92
2023/12/03 10:56:37;;;;;;;33.90;17.73;;;;;;;-141.97;100.00;46062.47;5041314;28;20232;-90
2023/12/03 10:59:08;;;;;;;39.67;20.03;;;;;;;-141.97;100.00;45972.19;5043189;28;20173;-92
2023/12/03 11:01:37;;;;;;;46.47;23.43;;;;;;;-141.97;100.00;46133.56;5039216;28;20161;-88